sensor_id;sensor_type;location;lat;lon;timestamp;pressure;altitude;pressure_sealevel;temperature;humidity
71299;BME280;59083;47.974;21.722;2023-01-16T00:00:16;99903.06;;;4.44;100.00
71299;BME280;59083;47.974;21.722;2023-01-16T00:03:18;99905.03;;;4.42;100.00
71299;BME280;59083;47.974;21.722;2023-01-16T00:06:19;99898.59;;;4.44;100.00
71299;BME280;59083;47.974;21.722;2023-01-16T00:09:20;99894.47;;;4.42;100.00
71299;BME280;59083;47.974;21.722;2023-01-16T00:12:21;99888.56;;;4.48;100.00
71299;BME280;59083;47.974;21.722;2023-01-16T00:15:23;99890.53;;;4.46;100.00
71299;BME280;59083;47.974;21.722;2023-01-16T00:18:24;99890.22;;;4.49;100.00
71299;BME280;59083;47.974;21.722;2023-01-16T00:21:25;99878.84;;;4.48;100.00
71299;BME280;59083;47.974;21.722;2023-01-16T00:24:26;99886.41;;;4.43;100.00
71299;BME280;59083;47.974;21.722;2023-01-16T00:27:28;99875.84;;;4.43;100.00
71299;BME280;59083;47.974;21.722;2023-01-16T00:30:30;99877.47;;;4.44;100.00
71299;BME280;59083;47.974;21.722;2023-01-16T00:33:32;99880.78;;;4.46;100.00
71299;BME280;59083;47.974;21.722;2023-01-16T00:36:33;99869.41;;;4.46;100.00
71299;BME280;59083;47.974;21.722;2023-01-16T00:39:35;99870.41;;;4.45;100.00
71299;BME280;59083;47.974;21.722;2023-01-16T00:42:38;99863.50;;;4.44;100.00
71299;BME280;59083;47.974;21.722;2023-01-16T00:45:40;99858.88;;;4.46;100.00
71299;BME280;59083;47.974;21.722;2023-01-16T00:48:41;99847.66;;;4.44;100.00
71299;BME280;59083;47.974;21.722;2023-01-16T00:51:42;99846.50;;;4.46;100.00
71299;BME280;59083;47.974;21.722;2023-01-16T00:54:43;99850.47;;;4.50;100.00
71299;BME280;59083;47.974;21.722;2023-01-16T00:57:45;99863.66;;;4.42;100.00
71299;BME280;59083;47.974;21.722;2023-01-16T01:00:46;99864.66;;;4.49;100.00
71299;BME280;59083;47.974;21.722;2023-01-16T01:03:47;99848.84;;;4.49;100.00
71299;BME280;59083;47.974;21.722;2023-01-16T01:06:48;99847.19;;;4.48;100.00
71299;BME280;59083;47.974;21.722;2023-01-16T01:09:51;99844.88;;;4.53;100.00
71299;BME280;59083;47.974;21.722;2023-01-16T01:12:55;99847.66;;;4.52;100.00
71299;BME280;59083;47.974;21.722;2023-01-16T01:15:56;99842.19;;;4.45;100.00
71299;BME280;59083;47.974;21.722;2023-01-16T01:18:57;99840.25;;;4.47;100.00
71299;BME280;59083;47.974;21.722;2023-01-16T01:21:58;99846.84;;;4.51;100.00
71299;BME280;59083;47.974;21.722;2023-01-16T01:24:59;99846.34;;;4.48;100.00
71299;BME280;59083;47.974;21.722;2023-01-16T01:28:01;99838.91;;;4.51;100.00
71299;BME280;59083;47.974;21.722;2023-01-16T01:31:07;99838.91;;;4.51;100.00
71299;BME280;59083;47.974;21.722;2023-01-16T01:34:09;99843.22;;;4.52;100.00
71299;BME280;59083;47.974;21.722;2023-01-16T01:37:10;99841.56;;;4.51;100.00
71299;BME280;59083;47.974;21.722;2023-01-16T01:40:12;99835.63;;;4.49;100.00
71299;BME280;59083;47.974;21.722;2023-01-16T01:43:14;99838.28;;;4.49;100.00
71299;BME280;59083;47.974;21.722;2023-01-16T01:49:36;99833.00;;;4.49;100.00
71299;BME280;59083;47.974;21.722;2023-01-16T01:52:39;99820.47;;;4.51;100.00
71299;BME280;59083;47.974;21.722;2023-01-16T01:55:42;99805.59;;;4.50;100.00
71299;BME280;59083;47.974;21.722;2023-01-16T01:58:48;99807.94;;;4.53;100.00
71299;BME280;59083;47.974;21.722;2023-01-16T02:01:51;99802.81;;;4.52;100.00
71299;BME280;59083;47.974;21.722;2023-01-16T02:04:54;99799.69;;;4.48;100.00
71299;BME280;59083;47.974;21.722;2023-01-16T02:07:58;99797.22;;;4.47;100.00
71299;BME280;59083;47.974;21.722;2023-01-16T02:11:07;99790.78;;;4.49;100.00
71299;BME280;59083;47.974;21.722;2023-01-16T02:14:12;99789.97;;;4.49;100.00
71299;BME280;59083;47.974;21.722;2023-01-16T02:17:17;99786.50;;;4.48;100.00
71299;BME280;59083;47.974;21.722;2023-01-16T02:20:49;99783.19;;;4.46;100.00
71299;BME280;59083;47.974;21.722;2023-01-16T02:34:14;99765.72;;;4.45;100.00
71299;BME280;59083;47.974;21.722;2023-01-16T02:37:44;99766.38;;;4.47;100.00
71299;BME280;59083;47.974;21.722;2023-01-16T02:44:40;99765.06;;;4.43;100.00
71299;BME280;59083;47.974;21.722;2023-01-16T02:51:09;99772.63;;;4.46;100.00
71299;BME280;59083;47.974;21.722;2023-01-16T02:54:18;99762.75;;;4.48;100.00
71299;BME280;59083;47.974;21.722;2023-01-16T02:57:27;99760.44;;;4.53;100.00
71299;BME280;59083;47.974;21.722;2023-01-16T03:00:30;99758.47;;;4.55;100.00
71299;BME280;59083;47.974;21.722;2023-01-16T03:14:26;99735.72;;;4.54;100.00
71299;BME280;59083;47.974;21.722;2023-01-16T03:17:34;99742.97;;;4.52;100.00
71299;BME280;59083;47.974;21.722;2023-01-16T03:21:00;99747.41;;;4.52;100.00
71299;BME280;59083;47.974;21.722;2023-01-16T03:24:12;99743.97;;;4.60;100.00
71299;BME280;59083;47.974;21.722;2023-01-16T03:40:48;99735.06;;;4.61;100.00
71299;BME280;59083;47.974;21.722;2023-01-16T03:43:57;99746.09;;;4.64;100.00
71299;BME280;59083;47.974;21.722;2023-01-16T03:47:00;99731.41;;;4.62;100.00
71299;BME280;59083;47.974;21.722;2023-01-16T03:50:06;99734.56;;;4.57;100.00
71299;BME280;59083;47.974;21.722;2023-01-16T03:53:12;99726.81;;;4.55;100.00
71299;BME280;59083;47.974;21.722;2023-01-16T03:56:29;99739.66;;;4.50;100.00
71299;BME280;59083;47.974;21.722;2023-01-16T03:59:34;99733.72;;;4.56;100.00
71299;BME280;59083;47.974;21.722;2023-01-16T04:02:47;99728.78;;;4.62;100.00
71299;BME280;59083;47.974;21.722;2023-01-16T04:06:07;99727.16;;;4.61;100.00
71299;BME280;59083;47.974;21.722;2023-01-16T04:09:21;99719.06;;;4.54;100.00
71299;BME280;59083;47.974;21.722;2023-01-16T04:12:29;99713.63;;;4.55;100.00
71299;BME280;59083;47.974;21.722;2023-01-16T04:15:34;99717.72;;;4.58;100.00
71299;BME280;59083;47.974;21.722;2023-01-16T04:18:36;99704.53;;;4.58;100.00
71299;BME280;59083;47.974;21.722;2023-01-16T04:21:37;99702.06;;;4.65;100.00
71299;BME280;59083;47.974;21.722;2023-01-16T04:24:43;99708.34;;;4.64;100.00
71299;BME280;59083;47.974;21.722;2023-01-16T04:27:44;99711.63;;;4.57;100.00
71299;BME280;59083;47.974;21.722;2023-01-16T04:30:46;99706.69;;;4.63;100.00
71299;BME280;59083;47.974;21.722;2023-01-16T04:33:47;99707.03;;;4.60;100.00
71299;BME280;59083;47.974;21.722;2023-01-16T04:36:48;99710.81;;;4.57;100.00
71299;BME280;59083;47.974;21.722;2023-01-16T04:39:49;99706.03;;;4.52;100.00
71299;BME280;59083;47.974;21.722;2023-01-16T04:42:51;99698.78;;;4.54;100.00
71299;BME280;59083;47.974;21.722;2023-01-16T04:45:52;99690.19;;;4.52;100.00
71299;BME280;59083;47.974;21.722;2023-01-16T04:48:53;99691.34;;;4.50;100.00
71299;BME280;59083;47.974;21.722;2023-01-16T04:51:54;99684.91;;;4.44;100.00
71299;BME280;59083;47.974;21.722;2023-01-16T04:54:56;99683.63;;;4.48;100.00
71299;BME280;59083;47.974;21.722;2023-01-16T04:57:57;99674.22;;;4.46;100.00
71299;BME280;59083;47.974;21.722;2023-01-16T05:00:58;99674.56;;;4.43;100.00
71299;BME280;59083;47.974;21.722;2023-01-16T05:03:59;99663.50;;;4.39;100.00
71299;BME280;59083;47.974;21.722;2023-01-16T05:07:00;99654.94;;;4.37;100.00
71299;BME280;59083;47.974;21.722;2023-01-16T05:10:02;99642.22;;;4.41;100.00
71299;BME280;59083;47.974;21.722;2023-01-16T05:13:03;99641.75;;;4.37;100.00
71299;BME280;59083;47.974;21.722;2023-01-16T05:16:05;99638.78;;;4.40;100.00
71299;BME280;59083;47.974;21.722;2023-01-16T05:19:07;99631.53;;;4.42;100.00
71299;BME280;59083;47.974;21.722;2023-01-16T05:22:09;99634.16;;;4.42;100.00
71299;BME280;59083;47.974;21.722;2023-01-16T05:25:10;99638.25;;;4.45;100.00
71299;BME280;59083;47.974;21.722;2023-01-16T05:28:11;99626.41;;;4.49;100.00
71299;BME280;59083;47.974;21.722;2023-01-16T05:31:12;99621.44;;;4.46;100.00
71299;BME280;59083;47.974;21.722;2023-01-16T05:34:13;99616.19;;;4.46;100.00
71299;BME280;59083;47.974;21.722;2023-01-16T05:37:15;99629.53;;;4.44;100.00
71299;BME280;59083;47.974;21.722;2023-01-16T05:40:16;99613.37;;;4.47;100.00
71299;BME280;59083;47.974;21.722;2023-01-16T05:43:17;99613.69;;;4.44;100.00
71299;BME280;59083;47.974;21.722;2023-01-16T05:46:19;99615.03;;;4.48;100.00
71299;BME280;59083;47.974;21.722;2023-01-16T05:49:20;99612.03;;;4.51;100.00
71299;BME280;59083;47.974;21.722;2023-01-16T05:52:21;99621.28;;;4.55;100.00
71299;BME280;59083;47.974;21.722;2023-01-16T05:55:23;99605.47;;;4.55;100.00
71299;BME280;59083;47.974;21.722;2023-01-16T05:58:24;99615.66;;;4.58;100.00
71299;BME280;59083;47.974;21.722;2023-01-16T06:01:26;99618.31;;;4.58;100.00
71299;BME280;59083;47.974;21.722;2023-01-16T06:04:28;99613.19;;;4.57;100.00
71299;BME280;59083;47.974;21.722;2023-01-16T06:07:33;99611.06;;;4.61;100.00
71299;BME280;59083;47.974;21.722;2023-01-16T06:10:34;99602.13;;;4.62;100.00
71299;BME280;59083;47.974;21.722;2023-01-16T06:13:36;99607.91;;;4.65;100.00
71299;BME280;59083;47.974;21.722;2023-01-16T06:16:37;99598.50;;;4.71;100.00
71299;BME280;59083;47.974;21.722;2023-01-16T06:19:38;99599.78;;;4.75;100.00
71299;BME280;59083;47.974;21.722;2023-01-16T06:22:39;99595.81;;;4.79;100.00
71299;BME280;59083;47.974;21.722;2023-01-16T06:25:40;99583.13;;;4.74;100.00
71299;BME280;59083;47.974;21.722;2023-01-16T06:28:43;99585.25;;;4.79;100.00
71299;BME280;59083;47.974;21.722;2023-01-16T06:31:44;99588.56;;;4.81;100.00
71299;BME280;59083;47.974;21.722;2023-01-16T06:34:45;99591.50;;;4.86;100.00
71299;BME280;59083;47.974;21.722;2023-01-16T06:37:46;99597.78;;;4.85;100.00
71299;BME280;59083;47.974;21.722;2023-01-16T06:40:48;99596.78;;;4.86;100.00
71299;BME280;59083;47.974;21.722;2023-01-16T06:43:49;99595.97;;;4.85;100.00
71299;BME280;59083;47.974;21.722;2023-01-16T06:46:50;99589.84;;;4.85;100.00
71299;BME280;59083;47.974;21.722;2023-01-16T06:49:51;99590.00;;;4.91;100.00
71299;BME280;59083;47.974;21.722;2023-01-16T06:52:53;99589.53;;;4.88;100.00
71299;BME280;59083;47.974;21.722;2023-01-16T06:55:54;99595.44;;;4.90;100.00
71299;BME280;59083;47.974;21.722;2023-01-16T06:58:55;99592.47;;;4.93;100.00
71299;BME280;59083;47.974;21.722;2023-01-16T07:01:56;99590.69;;;4.85;100.00
71299;BME280;59083;47.974;21.722;2023-01-16T07:04:58;99579.66;;;4.82;100.00
71299;BME280;59083;47.974;21.722;2023-01-16T07:07:59;99571.06;;;4.80;100.00
71299;BME280;59083;47.974;21.722;2023-01-16T07:11:01;99575.34;;;4.81;100.00
71299;BME280;59083;47.974;21.722;2023-01-16T07:14:02;99583.63;;;4.78;100.00
71299;BME280;59083;47.974;21.722;2023-01-16T07:17:22;99573.06;;;4.78;100.00
71299;BME280;59083;47.974;21.722;2023-01-16T07:20:50;99572.72;;;4.73;100.00
71299;BME280;59083;47.974;21.722;2023-01-16T07:24:14;99574.91;;;4.69;100.00
71299;BME280;59083;47.974;21.722;2023-01-16T07:27:17;99566.00;;;4.70;100.00
71299;BME280;59083;47.974;21.722;2023-01-16T07:30:39;99570.09;;;4.73;100.00
71299;BME280;59083;47.974;21.722;2023-01-16T07:33:43;99559.69;;;4.79;100.00
71299;BME280;59083;47.974;21.722;2023-01-16T07:36:44;99562.53;;;4.78;100.00
71299;BME280;59083;47.974;21.722;2023-01-16T07:39:45;99569.78;;;4.76;100.00
71299;BME280;59083;47.974;21.722;2023-01-16T07:42:46;99564.50;;;4.76;100.00
71299;BME280;59083;47.974;21.722;2023-01-16T07:45:47;99569.09;;;4.82;100.00
71299;BME280;59083;47.974;21.722;2023-01-16T07:48:53;99575.19;;;4.82;100.00
71299;BME280;59083;47.974;21.722;2023-01-16T07:51:56;99571.56;;;4.83;100.00
71299;BME280;59083;47.974;21.722;2023-01-16T07:54:57;99557.72;;;4.81;100.00
71299;BME280;59083;47.974;21.722;2023-01-16T07:57:58;99560.66;;;4.86;100.00
71299;BME280;59083;47.974;21.722;2023-01-16T08:00:59;99545.50;;;4.80;100.00
71299;BME280;59083;47.974;21.722;2023-01-16T08:04:01;99547.94;;;4.90;100.00
71299;BME280;59083;47.974;21.722;2023-01-16T08:07:02;99544.00;;;4.86;100.00
71299;BME280;59083;47.974;21.722;2023-01-16T08:10:04;99548.12;;;4.88;100.00
71299;BME280;59083;47.974;21.722;2023-01-16T08:13:06;99526.56;;;4.77;100.00
71299;BME280;59083;47.974;21.722;2023-01-16T08:16:07;99540.34;;;4.95;100.00
71299;BME280;59083;47.974;21.722;2023-01-16T08:19:08;99540.34;;;4.95;100.00
71299;BME280;59083;47.974;21.722;2023-01-16T08:22:09;99528.91;;;5.03;100.00
71299;BME280;59083;47.974;21.722;2023-01-16T08:25:11;99534.53;;;4.99;100.00
71299;BME280;59083;47.974;21.722;2023-01-16T08:28:12;99529.13;;;4.93;100.00
71299;BME280;59083;47.974;21.722;2023-01-16T08:31:14;99539.81;;;4.99;100.00
71299;BME280;59083;47.974;21.722;2023-01-16T08:34:16;99533.72;;;4.99;100.00
71299;BME280;59083;47.974;21.722;2023-01-16T08:37:17;99544.59;;;4.96;100.00
71299;BME280;59083;47.974;21.722;2023-01-16T08:40:19;99539.31;;;4.96;100.00
71299;BME280;59083;47.974;21.722;2023-01-16T08:43:20;99549.88;;;4.96;100.00
71299;BME280;59083;47.974;21.722;2023-01-16T08:46:41;99548.88;;;5.05;100.00
71299;BME280;59083;47.974;21.722;2023-01-16T08:50:01;99545.41;;;5.05;100.00
71299;BME280;59083;47.974;21.722;2023-01-16T08:53:21;99536.94;;;5.09;100.00
71299;BME280;59083;47.974;21.722;2023-01-16T08:56:22;99534.63;;;5.14;100.00
71299;BME280;59083;47.974;21.722;2023-01-16T08:59:23;99538.22;;;5.21;100.00
71299;BME280;59083;47.974;21.722;2023-01-16T09:02:26;99532.94;;;5.21;100.00
71299;BME280;59083;47.974;21.722;2023-01-16T09:05:28;99522.81;;;5.25;100.00
71299;BME280;59083;47.974;21.722;2023-01-16T09:08:29;99521.31;;;5.30;100.00
71299;BME280;59083;47.974;21.722;2023-01-16T09:11:31;99522.97;;;5.31;99.21
71299;BME280;59083;47.974;21.722;2023-01-16T09:14:51;99523.25;;;5.36;98.93
71299;BME280;59083;47.974;21.722;2023-01-16T09:17:52;99515.31;;;5.36;98.73
71299;BME280;59083;47.974;21.722;2023-01-16T09:20:53;99511.16;;;5.42;98.62
71299;BME280;59083;47.974;21.722;2023-01-16T09:23:55;99501.38;;;5.51;98.82
71299;BME280;59083;47.974;21.722;2023-01-16T09:26:56;99506.53;;;5.44;97.03
71299;BME280;59083;47.974;21.722;2023-01-16T09:29:57;99490.81;;;5.51;97.67
71299;BME280;59083;47.974;21.722;2023-01-16T09:33:00;99497.37;;;5.55;97.46
71299;BME280;59083;47.974;21.722;2023-01-16T09:36:03;99486.09;;;5.61;96.61
71299;BME280;59083;47.974;21.722;2023-01-16T09:39:04;99477.50;;;5.59;95.98
71299;BME280;59083;47.974;21.722;2023-01-16T09:49:20;99459.66;;;5.61;96.48
71299;BME280;59083;47.974;21.722;2023-01-16T09:52:28;99456.38;;;5.59;97.09
71299;BME280;59083;47.974;21.722;2023-01-16T09:55:52;99452.72;;;5.60;96.66
71299;BME280;59083;47.974;21.722;2023-01-16T09:59:21;99447.81;;;5.57;96.26
71299;BME280;59083;47.974;21.722;2023-01-16T10:02:30;99455.09;;;5.55;96.47
71299;BME280;59083;47.974;21.722;2023-01-16T10:05:41;99452.37;;;5.63;97.80
71299;BME280;59083;47.974;21.722;2023-01-16T10:12:10;99429.13;;;5.58;97.80
71299;BME280;59083;47.974;21.722;2023-01-16T10:15:55;99423.75;;;5.52;98.04
71299;BME280;59083;47.974;21.722;2023-01-16T10:22:50;99396.41;;;5.45;99.48
71299;BME280;59083;47.974;21.722;2023-01-16T10:26:07;99380.16;;;5.48;99.43
71299;BME280;59083;47.974;21.722;2023-01-16T10:29:20;99374.66;;;5.57;99.05
71299;BME280;59083;47.974;21.722;2023-01-16T10:32:30;99357.31;;;5.55;99.91
71299;BME280;59083;47.974;21.722;2023-01-16T10:35:37;99346.56;;;5.56;100.00
71299;BME280;59083;47.974;21.722;2023-01-16T10:38:43;99338.56;;;5.50;99.40
71299;BME280;59083;47.974;21.722;2023-01-16T10:41:59;99336.00;;;5.56;100.00
71299;BME280;59083;47.974;21.722;2023-01-16T10:45:25;99338.09;;;5.61;100.00
71299;BME280;59083;47.974;21.722;2023-01-16T10:48:46;99322.53;;;5.66;99.50
71299;BME280;59083;47.974;21.722;2023-01-16T10:52:06;99316.88;;;5.54;99.69
71299;BME280;59083;47.974;21.722;2023-01-16T10:55:09;99317.69;;;5.55;100.00
71299;BME280;59083;47.974;21.722;2023-01-16T10:58:32;99306.19;;;5.48;100.00
71299;BME280;59083;47.974;21.722;2023-01-16T11:01:36;99289.06;;;5.44;100.00
71299;BME280;59083;47.974;21.722;2023-01-16T11:04:38;99289.16;;;5.50;100.00
71299;BME280;59083;47.974;21.722;2023-01-16T11:07:41;99279.78;;;5.48;100.00
71299;BME280;59083;47.974;21.722;2023-01-16T11:10:52;99271.50;;;5.51;100.00
71299;BME280;59083;47.974;21.722;2023-01-16T11:13:53;99267.31;;;5.56;100.00
71299;BME280;59083;47.974;21.722;2023-01-16T11:17:36;99263.19;;;5.54;100.00
71299;BME280;59083;47.974;21.722;2023-01-16T11:21:01;99247.00;;;5.57;99.47
71299;BME280;59083;47.974;21.722;2023-01-16T11:24:20;99237.69;;;5.61;99.65
71299;BME280;59083;47.974;21.722;2023-01-16T11:27:23;99233.84;;;5.49;100.00
71299;BME280;59083;47.974;21.722;2023-01-16T11:30:29;99215.19;;;5.50;100.00
71299;BME280;59083;47.974;21.722;2023-01-16T11:33:41;99215.63;;;5.54;100.00
71299;BME280;59083;47.974;21.722;2023-01-16T11:36:44;99212.72;;;5.49;100.00
71299;BME280;59083;47.974;21.722;2023-01-16T11:39:51;99200.44;;;5.56;100.00
71299;BME280;59083;47.974;21.722;2023-01-16T11:42:57;99185.84;;;5.60;99.67
71299;BME280;59083;47.974;21.722;2023-01-16T11:46:37;99175.00;;;5.55;100.00
71299;BME280;59083;47.974;21.722;2023-01-16T11:49:43;99183.66;;;5.63;100.00
71299;BME280;59083;47.974;21.722;2023-01-16T11:52:47;99165.81;;;5.51;100.00
71299;BME280;59083;47.974;21.722;2023-01-16T12:00:15;99152.81;;;5.70;99.50
71299;BME280;59083;47.974;21.722;2023-01-16T12:06:38;99137.94;;;5.84;99.14
71299;BME280;59083;47.974;21.722;2023-01-16T12:13:03;99121.62;;;5.80;97.84
71299;BME280;59083;47.974;21.722;2023-01-16T12:29:36;99091.63;;;6.09;96.07
71299;BME280;59083;47.974;21.722;2023-01-16T12:33:12;99082.53;;;6.18;96.36
71299;BME280;59083;47.974;21.722;2023-01-16T12:42:36;99067.44;;;6.12;95.51
71299;BME280;59083;47.974;21.722;2023-01-16T12:46:33;99063.41;;;6.16;95.26
71299;BME280;59083;47.974;21.722;2023-01-16T12:59:51;99041.88;;;6.19;94.00
71299;BME280;59083;47.974;21.722;2023-01-16T13:02:58;99047.41;;;6.25;93.53
71299;BME280;59083;47.974;21.722;2023-01-16T13:06:02;99038.81;;;6.22;93.33
71299;BME280;59083;47.974;21.722;2023-01-16T13:09:04;99036.19;;;6.22;93.35
71299;BME280;59083;47.974;21.722;2023-01-16T13:12:21;99013.38;;;6.15;92.83
71299;BME280;59083;47.974;21.722;2023-01-16T13:15:44;99030.53;;;6.26;92.46
71299;BME280;59083;47.974;21.722;2023-01-16T13:19:02;99021.38;;;6.28;92.99
71299;BME280;59083;47.974;21.722;2023-01-16T13:25:22;99011.78;;;6.27;92.55
71299;BME280;59083;47.974;21.722;2023-01-16T13:31:50;98988.56;;;6.22;93.13
71299;BME280;59083;47.974;21.722;2023-01-16T13:34:59;98974.75;;;6.20;92.94
71299;BME280;59083;47.974;21.722;2023-01-16T13:41:33;98962.53;;;6.19;93.58
71299;BME280;59083;47.974;21.722;2023-01-16T13:44:42;98952.94;;;6.18;93.67
71299;BME280;59083;47.974;21.722;2023-01-16T13:48:04;98947.25;;;6.15;93.67
71299;BME280;59083;47.974;21.722;2023-01-16T13:51:13;98939.63;;;6.05;93.59
71299;BME280;59083;47.974;21.722;2023-01-16T13:54:25;98928.28;;;6.11;93.98
71299;BME280;59083;47.974;21.722;2023-01-16T13:57:29;98927.91;;;6.14;93.58
71299;BME280;59083;47.974;21.722;2023-01-16T14:00:31;98917.09;;;6.09;93.76
71299;BME280;59083;47.974;21.722;2023-01-16T14:03:34;98910.13;;;6.02;93.27
71299;BME280;59083;47.974;21.722;2023-01-16T14:06:47;98900.56;;;6.01;93.55
71299;BME280;59083;47.974;21.722;2023-01-16T14:10:37;98901.38;;;6.01;93.93
71299;BME280;59083;47.974;21.722;2023-01-16T14:13:38;98904.66;;;6.03;93.84
71299;BME280;59083;47.974;21.722;2023-01-16T14:16:40;98895.91;;;6.03;93.95
71299;BME280;59083;47.974;21.722;2023-01-16T14:19:52;98892.44;;;6.02;93.48
71299;BME280;59083;47.974;21.722;2023-01-16T14:22:54;98890.16;;;5.99;93.17
71299;BME280;59083;47.974;21.722;2023-01-16T14:26:21;98873.25;;;5.94;93.68
71299;BME280;59083;47.974;21.722;2023-01-16T14:29:27;98877.72;;;5.93;93.42
71299;BME280;59083;47.974;21.722;2023-01-16T14:32:31;98862.38;;;5.82;92.94
71299;BME280;59083;47.974;21.722;2023-01-16T14:35:50;98876.72;;;5.94;92.11
71299;BME280;59083;47.974;21.722;2023-01-16T14:38:52;98864.66;;;5.85;92.00
71299;BME280;59083;47.974;21.722;2023-01-16T14:41:56;98856.97;;;5.90;92.22
71299;BME280;59083;47.974;21.722;2023-01-16T14:45:30;98833.47;;;5.74;92.24
71299;BME280;59083;47.974;21.722;2023-01-16T14:48:50;98857.72;;;5.84;92.54
71299;BME280;59083;47.974;21.722;2023-01-16T14:56:22;98833.72;;;5.79;93.21
71299;BME280;59083;47.974;21.722;2023-01-16T14:59:32;98824.69;;;5.67;92.46
71299;BME280;59083;47.974;21.722;2023-01-16T15:02:37;98827.97;;;5.69;92.59
71299;BME280;59083;47.974;21.722;2023-01-16T15:05:46;98831.22;;;5.71;92.64
71299;BME280;59083;47.974;21.722;2023-01-16T15:08:53;98827.09;;;5.62;92.41
71299;BME280;59083;47.974;21.722;2023-01-16T15:12:01;98819.37;;;5.60;92.25
71299;BME280;59083;47.974;21.722;2023-01-16T15:15:03;98812.03;;;5.56;92.32
71299;BME280;59083;47.974;21.722;2023-01-16T15:18:04;98793.31;;;5.51;93.04
71299;BME280;59083;47.974;21.722;2023-01-16T15:21:24;98796.75;;;5.51;92.40
71299;BME280;59083;47.974;21.722;2023-01-16T15:24:50;98792.44;;;5.44;92.43
71299;BME280;59083;47.974;21.722;2023-01-16T15:28:06;98789.56;;;5.38;91.94
71299;BME280;59083;47.974;21.722;2023-01-16T15:31:24;98792.06;;;5.47;92.36
71299;BME280;59083;47.974;21.722;2023-01-16T15:34:29;98778.66;;;5.48;92.67
71299;BME280;59083;47.974;21.722;2023-01-16T15:37:30;98789.25;;;5.55;93.15
71299;BME280;59083;47.974;21.722;2023-01-16T15:40:33;98787.63;;;5.54;91.59
71299;BME280;59083;47.974;21.722;2023-01-16T15:43:36;98789.66;;;5.52;92.44
71299;BME280;59083;47.974;21.722;2023-01-16T15:56:45;98794.94;;;5.58;93.19
71299;BME280;59083;47.974;21.722;2023-01-16T15:59:53;98792.13;;;5.60;93.74
71299;BME280;59083;47.974;21.722;2023-01-16T16:03:09;98797.81;;;5.57;93.16
71299;BME280;59083;47.974;21.722;2023-01-16T16:06:13;98800.22;;;5.52;94.29
71299;BME280;59083;47.974;21.722;2023-01-16T16:09:19;98797.34;;;5.47;94.24
71299;BME280;59083;47.974;21.722;2023-01-16T16:12:21;98791.81;;;5.41;95.93
71299;BME280;59083;47.974;21.722;2023-01-16T16:15:23;98789.94;;;5.35;96.59
71299;BME280;59083;47.974;21.722;2023-01-16T16:18:55;98788.94;;;5.36;96.71
71299;BME280;59083;47.974;21.722;2023-01-16T16:22:02;98785.88;;;5.33;97.38
71299;BME280;59083;47.974;21.722;2023-01-16T16:28:57;98790.63;;;5.16;99.98
71299;BME280;59083;47.974;21.722;2023-01-16T16:32:05;98767.88;;;5.15;100.00
71299;BME280;59083;47.974;21.722;2023-01-16T16:35:42;98773.09;;;5.09;100.00
71299;BME280;59083;47.974;21.722;2023-01-16T16:38:48;98782.37;;;4.98;100.00
71299;BME280;59083;47.974;21.722;2023-01-16T16:41:50;98779.91;;;4.96;100.00
71299;BME280;59083;47.974;21.722;2023-01-16T16:45:31;98794.91;;;4.96;100.00
71299;BME280;59083;47.974;21.722;2023-01-16T16:48:34;98815.22;;;4.95;100.00
71299;BME280;59083;47.974;21.722;2023-01-16T16:51:36;98818.88;;;4.94;100.00
71299;BME280;59083;47.974;21.722;2023-01-16T16:54:37;98820.91;;;4.92;100.00
71299;BME280;59083;47.974;21.722;2023-01-16T16:57:41;98819.06;;;4.93;100.00
71299;BME280;59083;47.974;21.722;2023-01-16T17:00:44;98810.28;;;4.86;100.00
71299;BME280;59083;47.974;21.722;2023-01-16T17:03:48;98826.75;;;4.88;100.00
71299;BME280;59083;47.974;21.722;2023-01-16T17:06:50;98808.28;;;4.88;100.00
71299;BME280;59083;47.974;21.722;2023-01-16T17:09:54;98799.97;;;4.91;100.00
71299;BME280;59083;47.974;21.722;2023-01-16T17:12:55;98794.44;;;4.86;100.00
71299;BME280;59083;47.974;21.722;2023-01-16T17:15:58;98797.06;;;4.86;100.00
71299;BME280;59083;47.974;21.722;2023-01-16T17:19:06;98789.66;;;4.75;100.00
71299;BME280;59083;47.974;21.722;2023-01-16T17:22:14;98780.56;;;4.77;100.00
71299;BME280;59083;47.974;21.722;2023-01-16T17:25:16;98784.56;;;4.73;100.00
71299;BME280;59083;47.974;21.722;2023-01-16T17:28:24;98776.34;;;4.62;100.00
71299;BME280;59083;47.974;21.722;2023-01-16T17:31:26;98776.56;;;4.60;100.00
71299;BME280;59083;47.974;21.722;2023-01-16T17:34:28;98769.06;;;4.64;100.00
71299;BME280;59083;47.974;21.722;2023-01-16T17:37:29;98767.19;;;4.57;100.00
71299;BME280;59083;47.974;21.722;2023-01-16T17:40:30;98761.31;;;4.55;100.00
71299;BME280;59083;47.974;21.722;2023-01-16T17:43:31;98758.03;;;4.53;100.00
71299;BME280;59083;47.974;21.722;2023-01-16T17:46:51;98759.53;;;4.41;100.00
71299;BME280;59083;47.974;21.722;2023-01-16T17:49:53;98763.06;;;4.48;100.00
71299;BME280;59083;47.974;21.722;2023-01-16T17:53:16;98755.97;;;4.49;100.00
71299;BME280;59083;47.974;21.722;2023-01-16T17:56:17;98751.22;;;4.44;100.00
71299;BME280;59083;47.974;21.722;2023-01-16T17:59:19;98747.34;;;4.40;100.00
71299;BME280;59083;47.974;21.722;2023-01-16T18:02:21;98749.38;;;4.38;100.00
71299;BME280;59083;47.974;21.722;2023-01-16T18:05:22;98748.25;;;4.47;100.00
71299;BME280;59083;47.974;21.722;2023-01-16T18:08:23;98737.94;;;4.52;100.00
71299;BME280;59083;47.974;21.722;2023-01-16T18:11:24;98728.44;;;4.58;100.00
71299;BME280;59083;47.974;21.722;2023-01-16T18:14:44;98717.06;;;4.57;100.00
71299;BME280;59083;47.974;21.722;2023-01-16T18:18:03;98718.94;;;4.64;100.00
71299;BME280;59083;47.974;21.722;2023-01-16T18:21:09;98709.03;;;4.66;100.00
71299;BME280;59083;47.974;21.722;2023-01-16T18:24:35;98706.19;;;4.67;100.00
71299;BME280;59083;47.974;21.722;2023-01-16T18:27:36;98706.63;;;4.71;100.00